Time;durP1;ratioP1;P1;durP2;ratioP2;P2;SDS_P1;SDS_P2;PMS_P1;PMS_P2;Temp;Humidity;BMP_temperature;BMP_pressure;BME280_temperature;BME280_humidity;BME280_pressure;Samples;Min_cycle;Max_cycle;Signal;HPM_P1;HPM_P2
2022/12/04 00:00:04;;;;;;;37.63;25.47;;;2.60;99.90;;;;;;5056385;28;20547;-68
2022/12/04 00:02:31;;;;;;;34.03;23.43;;;2.60;99.90;;;;;;5058713;28;20846;-68
2022/12/04 00:04:58;;;;;;;38.53;26.90;;;2.60;99.90;;;;;;5056130;28;20865;-68
2022/12/04 00:07:25;;;;;;;38.23;27.63;;;2.60;99.90;;;;;;5053102;28;20598;-68
2022/12/04 00:09:52;;;;;;;41.77;29.00;;;2.70;99.90;;;;;;5062553;28;21298;-68
2022/12/04 00:12:20;;;;;;;40.77;28.00;;;2.60;99.90;;;;;;5055602;28;20494;-68
2022/12/04 00:14:47;;;;;;;31.10;24.50;;;2.60;99.90;;;;;;5059328;28;20992;-68
2022/12/04 00:17:14;;;;;;;36.07;25.30;;;2.70;99.90;;;;;;5051797;28;20480;-68
2022/12/04 00:19:41;;;;;;;35.93;26.27;;;2.80;99.90;;;;;;5058823;28;20470;-68
2022/12/04 00:22:08;;;;;;;35.40;26.53;;;2.70;99.90;;;;;;5059193;28;21039;-70
2022/12/04 00:24:35;;;;;;;33.70;27.07;;;2.60;99.90;;;;;;5056444;28;20459;-68
2022/12/04 00:27:02;;;;;;;38.37;25.20;;;2.60;99.90;;;;;;5059213;28;20477;-68
2022/12/04 00:29:30;;;;;;;37.30;25.87;;;2.70;99.90;;;;;;5056936;28;20949;-68
2022/12/04 00:31:57;;;;;;;38.57;26.00;;;2.60;99.90;;;;;;5055868;28;20487;-68
2022/12/04 00:34:24;;;;;;;31.77;25.10;;;2.50;99.90;;;;;;5059843;28;20806;-68
2022/12/04 00:36:51;;;;;;;36.80;26.80;;;2.60;99.90;;;;;;5060067;28;20539;-68
2022/12/04 00:39:17;;;;;;;34.73;27.07;;;2.50;99.90;;;;;;5053149;28;20472;-68
2022/12/04 00:41:44;;;;;;;33.67;26.20;;;2.50;99.90;;;;;;5059730;28;20489;-68
2022/12/04 00:44:12;;;;;;;30.80;25.40;;;2.50;99.90;;;;;;5059446;28;20981;-69
2022/12/04 00:46:40;;;;;;;33.60;24.93;;;2.50;99.90;;;;;;5051997;28;20455;-68
2022/12/04 00:49:06;;;;;;;35.60;24.90;;;2.70;99.90;;;;;;5061492;28;20480;-68
2022/12/04 00:51:33;;;;;;;40.03;26.07;;;2.50;99.90;;;;;;5057353;28;20826;-68
2022/12/04 00:54:01;;;;;;;38.13;24.37;;;2.40;99.90;;;;;;5051651;28;20505;-68
2022/12/04 00:56:29;;;;;;;36.00;27.20;;;2.40;99.90;;;;;;5054689;28;20455;-68
2022/12/04 00:58:57;;;;;;;33.77;25.20;;;2.40;99.90;;;;;;5059114;28;20546;-68
2022/12/04 01:01:25;;;;;;;33.07;24.47;;;2.40;99.90;;;;;;5053908;28;20550;-68
2022/12/04 01:03:55;;;;;;;32.53;25.07;;;2.50;99.90;;;;;;5054067;28;20458;-68
2022/12/04 01:06:23;;;;;;;37.37;26.70;;;2.50;99.90;;;;;;5049317;28;20495;-68
2022/12/04 01:08:53;;;;;;;35.60;26.60;;;2.40;99.90;;;;;;5060556;28;20494;-68
2022/12/04 01:11:21;;;;;;;39.23;26.93;;;2.40;99.90;;;;;;5060053;28;20494;-68
2022/12/04 01:13:48;;;;;;;37.93;23.87;;;2.40;99.90;;;;;;5063277;28;20485;-70
2022/12/04 01:16:20;;;;;;;36.23;25.97;;;2.40;99.90;;;;;;5053317;28;20500;-68
2022/12/04 01:18:48;;;;;;;41.10;27.00;;;2.30;99.90;;;;;;5053171;28;20474;-68
2022/12/04 01:21:17;;;;;;;33.20;24.20;;;2.30;99.90;;;;;;5058269;28;20529;-68
2022/12/04 01:23:44;;;;;;;29.77;24.90;;;2.20;99.90;;;;;;5052177;28;21266;-68
2022/12/04 01:26:12;;;;;;;37.40;27.23;;;2.30;99.90;;;;;;5058720;28;20462;-68
2022/12/04 01:28:39;;;;;;;32.23;24.63;;;2.20;99.90;;;;;;5054194;28;20453;-68
2022/12/04 01:31:07;;;;;;;37.07;25.23;;;2.20;99.90;;;;;;5058544;28;20668;-68
2022/12/04 01:33:35;;;;;;;33.10;23.93;;;2.20;99.90;;;;;;5052501;28;20472;-68
2022/12/04 01:36:04;;;;;;;35.00;24.90;;;2.30;99.90;;;;;;5055361;28;20738;-68
2022/12/04 01:38:32;;;;;;;37.70;26.43;;;2.10;99.90;;;;;;5053278;28;20459;-68
2022/12/04 01:40:59;;;;;;;39.70;24.47;;;2.30;99.90;;;;;;5056622;28;20694;-68
2022/12/04 01:43:29;;;;;;;34.70;24.63;;;2.20;99.90;;;;;;5050796;28;21084;-68
2022/12/04 01:45:56;;;;;;;34.37;25.03;;;2.30;99.90;;;;;;5055843;28;20461;-68
2022/12/04 01:48:29;;;;;;;39.13;24.13;;;2.20;99.90;;;;;;5056308;28;20957;-68
2022/12/04 01:51:04;;;;;;;30.73;24.73;;;2.20;99.90;;;;;;5054981;28;20494;-68
2022/12/04 01:53:35;;;;;;;38.93;26.70;;;2.20;99.90;;;;;;5057871;28;20465;-68
2022/12/04 01:56:03;;;;;;;40.47;26.43;;;2.10;99.90;;;;;;5051856;28;20455;-68
2022/12/04 01:58:34;;;;;;;43.47;26.30;;;2.10;99.90;;;;;;5050403;28;21132;-68
2022/12/04 02:01:05;;;;;;;36.23;23.60;;;2.00;99.90;;;;;;5051840;28;21037;-68
2022/12/04 02:03:33;;;;;;;39.70;25.17;;;2.00;99.90;;;;;;5050593;28;20460;-68
2022/12/04 02:06:00;;;;;;;33.50;24.67;;;1.90;99.90;;;;;;5056668;28;20818;-68
2022/12/04 02:08:28;;;;;;;40.23;26.93;;;1.90;99.90;;;;;;5055598;28;20459;-68
2022/12/04 02:11:09;;;;;;;41.07;26.80;;;1.90;99.90;;;;;;5056083;28;20489;-68
2022/12/04 02:13:47;;;;;;;35.93;26.00;;;2.00;99.90;;;;;;5053790;28;20511;-68
2022/12/04 02:16:24;;;;;;;43.47;25.93;;;1.80;99.90;;;;;;5054494;28;20555;-68
2022/12/04 02:18:58;;;;;;;42.13;26.90;;;1.80;99.90;;;;;;5056956;28;20464;-68
2022/12/04 02:21:32;;;;;;;40.97;26.27;;;1.70;99.90;;;;;;5059575;28;20472;-69
2022/12/04 02:24:31;;;;;;;42.90;25.20;;;1.70;99.90;;;;;;5061995;28;20485;-68
2022/12/04 02:27:03;;;;;;;36.10;24.13;;;2.00;99.90;;;;;;5053093;28;20481;-68
2022/12/04 02:29:39;;;;;;;49.87;26.57;;;2.00;99.90;;;;;;5056837;28;20493;-68
2022/12/04 02:32:16;;;;;;;35.97;25.60;;;2.00;99.90;;;;;;5052523;28;20891;-68
2022/12/04 02:34:51;;;;;;;38.33;26.93;;;1.80;99.90;;;;;;5057272;28;20806;-68
2022/12/04 02:37:21;;;;;;;40.17;25.37;;;1.80;99.90;;;;;;5058265;28;20470;-69
2022/12/04 02:39:54;;;;;;;40.20;26.30;;;1.70;99.90;;;;;;5057088;28;20467;-68
2022/12/04 02:42:28;;;;;;;39.40;26.37;;;1.80;99.90;;;;;;5057316;28;20458;-68
2022/12/04 02:45:01;;;;;;;43.10;27.70;;;1.80;99.90;;;;;;5054805;28;20463;-68
2022/12/04 02:47:29;;;;;;;40.07;25.87;;;1.90;99.90;;;;;;5056320;28;20482;-68
2022/12/04 02:49:59;;;;;;;32.37;25.60;;;1.80;99.90;;;;;;5054852;28;20487;-68
2022/12/04 02:52:36;;;;;;;37.33;25.50;;;1.90;99.90;;;;;;5054869;28;20879;-68
2022/12/04 02:55:08;;;;;;;39.27;26.80;;;2.00;99.90;;;;;;5061087;28;20469;-68
2022/12/04 02:57:38;;;;;;;37.87;25.67;;;1.80;99.90;;;;;;5056545;28;20833;-68
2022/12/04 03:00:08;;;;;;;39.10;25.47;;;1.80;99.90;;;;;;5054497;28;20453;-68
2022/12/04 03:02:41;;;;;;;39.47;26.20;;;1.80;99.90;;;;;;5058513;28;20838;-68
2022/12/04 03:05:12;;;;;;;43.03;23.90;;;1.80;99.90;;;;;;5051905;28;20862;-68
2022/12/04 03:07:44;;;;;;;41.23;25.17;;;1.80;99.90;;;;;;5057551;28;20949;-68
2022/12/04 03:10:14;;;;;;;39.00;23.50;;;1.90;99.90;;;;;;5056330;28;20693;-68
2022/12/04 03:12:45;;;;;;;45.03;24.90;;;1.80;99.90;;;;;;5049674;28;20818;-68
2022/12/04 03:15:18;;;;;;;39.00;25.90;;;1.80;99.90;;;;;;5055973;28;20466;-68
2022/12/04 03:17:53;;;;;;;45.67;25.47;;;1.80;99.90;;;;;;5062420;28;20505;-68
2022/12/04 03:20:22;;;;;;;44.83;25.90;;;1.90;99.90;;;;;;5059154;28;20509;-68
2022/12/04 03:22:54;;;;;;;41.90;25.50;;;1.70;99.90;;;;;;5055160;28;20840;-68
2022/12/04 03:25:25;;;;;;;42.07;25.60;;;1.80;99.90;;;;;;5060011;28;20456;-68
2022/12/04 03:27:57;;;;;;;40.57;26.87;;;1.80;99.90;;;;;;5063752;28;20939;-68
2022/12/04 03:30:26;;;;;;;41.07;25.73;;;1.70;99.90;;;;;;5057823;28;20478;-68
2022/12/04 03:32:58;;;;;;;42.77;25.87;;;1.60;99.90;;;;;;5058651;28;20490;-68
2022/12/04 03:35:28;;;;;;;41.30;25.03;;;1.70;99.90;;;;;;5057236;28;20463;-68
2022/12/04 03:38:01;;;;;;;42.47;25.20;;;1.70;99.90;;;;;;5060925;28;20455;-68
2022/12/04 03:40:35;;;;;;;41.63;25.60;;;1.60;99.90;;;;;;5059664;28;20815;-68
2022/12/04 03:43:06;;;;;;;44.70;25.70;;;1.60;99.90;;;;;;5059305;28;20466;-68
2022/12/04 03:45:43;;;;;;;43.90;26.37;;;1.70;99.90;;;;;;5054683;28;20466;-68
2022/12/04 03:48:16;;;;;;;39.00;25.63;;;1.60;99.90;;;;;;5054491;28;20467;-68
2022/12/04 03:50:50;;;;;;;46.33;25.33;;;1.70;99.90;;;;;;5052934;28;20493;-68
2022/12/04 03:53:23;;;;;;;41.20;26.20;;;1.80;99.90;;;;;;5058476;28;20470;-68
2022/12/04 03:55:56;;;;;;;39.00;24.80;;;1.70;99.90;;;;;;5060872;28;21012;-68
2022/12/04 03:58:28;;;;;;;44.20;25.37;;;1.70;99.90;;;;;;5060983;28;21172;-68
2022/12/04 04:00:57;;;;;;;42.00;24.30;;;1.60;99.90;;;;;;5052528;28;20748;-68
2022/12/04 04:03:28;;;;;;;47.70;27.63;;;1.60;99.90;;;;;;5056243;28;20561;-68
2022/12/04 04:06:01;;;;;;;38.37;24.53;;;1.60;99.90;;;;;;5052296;28;20585;-68
2022/12/04 04:08:33;;;;;;;44.00;25.97;;;1.60;99.90;;;;;;5057926;28;20458;-68
2022/12/04 04:11:08;;;;;;;45.07;26.70;;;1.60;99.90;;;;;;5061297;28;20463;-68
2022/12/04 04:24:54;;;;;;;39.83;26.83;;;1.60;99.90;;;;;;5058119;28;20530;-68
2022/12/04 04:27:22;;;;;;;36.50;21.90;;;1.40;99.90;;;;;;5060554;28;20466;-68
2022/12/04 04:29:51;;;;;;;38.87;24.70;;;1.50;99.90;;;;;;5059969;28;20462;-68
2022/12/04 04:32:26;;;;;;;36.63;24.73;;;1.60;99.90;;;;;;5055901;28;20482;-68
2022/12/04 04:34:59;;;;;;;40.30;25.97;;;1.50;99.90;;;;;;5055559;28;20463;-69
2022/12/04 04:37:34;;;;;;;43.33;26.63;;;1.60;99.90;;;;;;5061646;28;20493;-68
2022/12/04 04:40:06;;;;;;;40.90;25.90;;;1.60;99.90;;;;;;5056662;28;20646;-68
2022/12/04 04:42:37;;;;;;;46.50;26.80;;;1.50;99.90;;;;;;5058767;28;20478;-68
2022/12/04 04:45:08;;;;;;;41.53;25.03;;;1.60;99.90;;;;;;5057185;28;20871;-68
2022/12/04 04:47:45;;;;;;;39.17;23.87;;;1.40;99.90;;;;;;5060263;28;20958;-68
2022/12/04 04:50:14;;;;;;;39.80;25.30;;;1.40;99.90;;;;;;5062447;28;20482;-68
2022/12/04 04:52:46;;;;;;;44.33;26.50;;;1.50;99.90;;;;;;5061202;28;20494;-68
2022/12/04 04:55:14;;;;;;;40.47;24.63;;;1.60;99.90;;;;;;5051458;28;20653;-68
2022/12/04 04:57:41;;;;;;;41.43;25.57;;;1.60;99.90;;;;;;5054817;28;20467;-68
2022/12/04 05:00:12;;;;;;;39.93;26.20;;;1.40;99.90;;;;;;5059950;28;20464;-68
2022/12/04 05:02:41;;;;;;;41.30;25.30;;;1.50;99.90;;;;;;5059953;28;20872;-68
2022/12/04 05:05:09;;;;;;;42.73;26.40;;;1.50;99.90;;;;;;5064589;28;20494;-68
2022/12/04 05:07:36;;;;;;;35.03;25.30;;;1.70;99.90;;;;;;5052736;28;20452;-68
2022/12/04 05:10:02;;;;;;;41.93;26.67;;;1.60;99.90;;;;;;5052106;28;20490;-68
2022/12/04 05:12:29;;;;;;;46.30;25.50;;;1.60;99.90;;;;;;5059116;28;20501;-68
2022/12/04 05:14:56;;;;;;;39.93;24.40;;;1.50;99.90;;;;;;5060655;28;20465;-68
2022/12/04 05:17:23;;;;;;;44.83;24.83;;;1.50;99.90;;;;;;5053907;28;20975;-68
2022/12/04 05:19:53;;;;;;;44.50;26.77;;;1.60;99.90;;;;;;5064157;28;20461;-68
2022/12/04 05:22:22;;;;;;;35.03;25.07;;;1.50;99.90;;;;;;5055543;28;21217;-68
2022/12/04 05:24:49;;;;;;;45.67;28.00;;;1.50;99.90;;;;;;5059647;28;20523;-68
2022/12/04 05:27:16;;;;;;;38.70;27.70;;;1.40;99.90;;;;;;5060093;28;20473;-68
2022/12/04 05:29:42;;;;;;;40.50;24.77;;;1.30;99.90;;;;;;5050409;28;20884;-68
2022/12/04 05:32:09;;;;;;;39.77;25.00;;;1.30;99.90;;;;;;5058472;28;20488;-68
2022/12/04 05:34:36;;;;;;;50.90;27.23;;;1.30;99.90;;;;;;5054218;28;20462;-68
2022/12/04 05:37:04;;;;;;;43.77;25.77;;;1.40;99.90;;;;;;5054396;28;20836;-68
2022/12/04 05:39:31;;;;;;;39.83;24.00;;;1.30;99.90;;;;;;5055928;28;20485;-68
2022/12/04 05:41:58;;;;;;;40.33;26.30;;;1.30;99.90;;;;;;5059481;28;20805;-68
2022/12/04 05:44:25;;;;;;;42.17;26.73;;;1.30;99.90;;;;;;5059890;28;20504;-68
2022/12/04 05:46:51;;;;;;;48.50;25.77;;;1.20;99.90;;;;;;5053372;28;20463;-69
2022/12/04 05:49:18;;;;;;;39.73;27.73;;;1.20;99.90;;;;;;5056264;28;20486;-68
2022/12/04 05:51:45;;;;;;;40.97;23.70;;;1.10;99.90;;;;;;5057788;28;20482;-68
2022/12/04 05:54:14;;;;;;;41.00;25.10;;;1.10;99.90;;;;;;5054601;28;20466;-68
2022/12/04 05:56:41;;;;;;;44.60;26.87;;;1.00;99.90;;;;;;5050134;28;20474;-68
2022/12/04 05:59:08;;;;;;;44.00;27.83;;;1.20;99.90;;;;;;5055596;28;20464;-69
2022/12/04 06:01:35;;;;;;;41.03;25.20;;;1.20;99.90;;;;;;5055173;28;20470;-68
2022/12/04 06:04:02;;;;;;;46.33;25.30;;;1.20;99.90;;;;;;5063603;28;20457;-68
2022/12/04 06:06:30;;;;;;;40.10;24.60;;;1.10;99.90;;;;;;5050585;28;20490;-68
2022/12/04 06:08:58;;;;;;;41.30;24.53;;;1.20;99.90;;;;;;5054063;28;20460;-68
2022/12/04 06:11:28;;;;;;;40.37;25.30;;;1.20;99.90;;;;;;5052435;28;20994;-68
2022/12/04 06:13:56;;;;;;;43.13;23.90;;;1.20;99.90;;;;;;5063915;28;20889;-68
2022/12/04 06:16:25;;;;;;;34.57;23.70;;;1.10;99.90;;;;;;5052698;28;20463;-68
2022/12/04 06:18:53;;;;;;;39.07;23.90;;;1.20;99.90;;;;;;5057838;28;20461;-68
2022/12/04 06:21:21;;;;;;;38.90;23.23;;;1.20;99.90;;;;;;5056495;28;20473;-68
2022/12/04 06:23:48;;;;;;;44.23;25.80;;;1.30;99.90;;;;;;5057549;28;20461;-68
2022/12/04 06:26:15;;;;;;;35.97;23.33;;;1.20;99.90;;;;;;5058754;28;20461;-68
2022/12/04 06:28:44;;;;;;;39.50;23.77;;;1.20;99.90;;;;;;5060466;28;20464;-69
2022/12/04 06:31:13;;;;;;;30.47;21.67;;;1.10;99.90;;;;;;5062371;28;20461;-69
2022/12/04 06:33:41;;;;;;;33.20;22.47;;;1.20;99.90;;;;;;5057438;28;20678;-68
2022/12/04 06:36:10;;;;;;;44.90;22.40;;;1.20;99.90;;;;;;5052414;28;20481;-68
2022/12/04 06:38:37;;;;;;;37.73;22.93;;;1.30;99.90;;;;;;5054760;28;20521;-69
2022/12/04 06:41:04;;;;;;;36.67;22.07;;;1.30;99.90;;;;;;5058911;28;20890;-68
2022/12/04 06:43:32;;;;;;;36.23;23.40;;;1.30;99.90;;;;;;5056670;28;20460;-70
2022/12/04 06:46:02;;;;;;;39.97;22.90;;;1.40;99.90;;;;;;5058091;28;20466;-68
2022/12/04 06:48:29;;;;;;;33.40;22.23;;;1.30;99.90;;;;;;5052885;28;20906;-68
2022/12/04 06:51:00;;;;;;;34.90;23.73;;;1.30;99.90;;;;;;5055447;28;20497;-68
2022/12/04 06:53:29;;;;;;;31.67;22.10;;;1.20;99.90;;;;;;5051609;28;20738;-68
2022/12/04 06:55:56;;;;;;;35.90;22.00;;;1.40;99.90;;;;;;5063144;28;20680;-68
2022/12/04 06:58:24;;;;;;;34.60;21.10;;;1.50;99.90;;;;;;5059456;28;20494;-68
2022/12/04 07:00:51;;;;;;;28.33;18.10;;;1.60;99.90;;;;;;5057884;28;20461;-68
2022/12/04 07:03:20;;;;;;;31.20;21.40;;;1.40;99.90;;;;;;5056638;28;20499;-68
2022/12/04 07:05:47;;;;;;;31.80;19.07;;;1.50;99.90;;;;;;5063366;28;21108;-68
2022/12/04 07:08:14;;;;;;;28.83;21.23;;;1.50;99.90;;;;;;5066518;28;20983;-68
2022/12/04 07:10:41;;;;;;;27.10;19.60;;;1.40;99.90;;;;;;5060288;28;20459;-68
2022/12/04 07:13:08;;;;;;;26.77;20.43;;;1.60;99.90;;;;;;5062351;28;20505;-68
2022/12/04 07:15:36;;;;;;;30.47;20.43;;;1.50;99.90;;;;;;5059638;28;20487;-68
2022/12/04 07:18:03;;;;;;;27.67;20.10;;;1.50;99.90;;;;;;5057334;28;20469;-68
2022/12/04 07:20:32;;;;;;;31.03;21.57;;;1.70;99.90;;;;;;5060677;28;20466;-68
2022/12/04 07:22:59;;;;;;;28.53;20.30;;;1.70;99.90;;;;;;5060760;28;20465;-68
2022/12/04 07:25:28;;;;;;;23.10;19.83;;;1.60;99.90;;;;;;5057559;28;20486;-68
2022/12/04 07:27:55;;;;;;;23.50;19.23;;;1.70;99.90;;;;;;5055682;28;20471;-68
2022/12/04 07:30:22;;;;;;;30.27;19.00;;;1.60;99.90;;;;;;5060503;28;20462;-68
2022/12/04 07:32:49;;;;;;;24.57;19.83;;;1.80;99.90;;;;;;5062474;28;20495;-68
2022/12/04 07:35:16;;;;;;;26.03;20.87;;;1.70;99.90;;;;;;5060905;28;20459;-68
2022/12/04 07:37:44;;;;;;;26.13;20.43;;;1.90;99.90;;;;;;5059844;28;20545;-68
2022/12/04 07:40:12;;;;;;;26.57;19.63;;;1.80;99.90;;;;;;5058239;28;20455;-69
2022/12/04 07:42:39;;;;;;;22.90;19.60;;;2.00;99.90;;;;;;5056983;28;20470;-69
2022/12/04 07:45:07;;;;;;;23.27;19.77;;;2.00;99.90;;;;;;5056160;28;20468;-68
2022/12/04 07:47:36;;;;;;;23.07;19.23;;;1.80;99.90;;;;;;5065327;28;20554;-68
2022/12/04 07:50:03;;;;;;;22.67;18.30;;;1.80;99.90;;;;;;5063066;28;20529;-68
2022/12/04 07:52:30;;;;;;;27.10;18.30;;;1.60;99.90;;;;;;5053877;28;21076;-69
2022/12/04 07:54:59;;;;;;;20.70;18.47;;;1.80;99.90;;;;;;5061996;28;20458;-68
2022/12/04 07:57:42;;;;;;;22.00;19.70;;;1.90;99.90;;;;;;5059677;28;20459;-68
2022/12/04 08:00:11;;;;;;;26.60;19.50;;;1.70;99.90;;;;;;5052745;28;20494;-68
2022/12/04 08:02:37;;;;;;;22.63;19.60;;;1.90;99.90;;;;;;5058416;28;20464;-70
2022/12/04 08:05:05;;;;;;;25.20;19.00;;;1.80;99.90;;;;;;5064510;28;20509;-68
2022/12/04 08:07:32;;;;;;;23.27;20.10;;;1.70;99.90;;;;;;5054745;28;21063;-68
2022/12/04 08:10:02;;;;;;;26.53;20.90;;;1.70;99.90;;;;;;5059298;28;21043;-68
2022/12/04 08:12:29;;;;;;;37.33;24.40;;;1.80;99.90;;;;;;5053079;28;20494;-68
2022/12/04 08:14:55;;;;;;;26.27;21.57;;;1.90;99.90;;;;;;5056763;28;20464;-69
2022/12/04 08:17:22;;;;;;;27.50;20.33;;;1.80;99.90;;;;;;5058356;28;20822;-68
2022/12/04 08:19:49;;;;;;;25.90;20.20;;;1.80;99.90;;;;;;5058130;28;20459;-68
2022/12/04 08:22:17;;;;;;;27.70;23.50;;;1.70;99.90;;;;;;5057901;28;20463;-68
2022/12/04 08:24:44;;;;;;;35.13;23.90;;;1.70;99.90;;;;;;5053550;28;20470;-68
2022/12/04 08:27:12;;;;;;;29.20;21.67;;;1.70;99.90;;;;;;5060412;28;20490;-68
2022/12/04 08:29:39;;;;;;;27.60;22.60;;;1.70;99.90;;;;;;5057849;28;20846;-68
2022/12/04 08:32:06;;;;;;;21.93;19.50;;;1.90;99.90;;;;;;5056299;28;20473;-68
2022/12/04 08:34:33;;;;;;;26.40;20.77;;;1.70;99.90;;;;;;5055133;28;21195;-68
2022/12/04 08:37:00;;;;;;;27.20;20.93;;;1.80;99.90;;;;;;5052852;28;20466;-68
2022/12/04 08:39:27;;;;;;;33.53;22.23;;;1.90;99.90;;;;;;5056841;28;20951;-68
2022/12/04 08:41:54;;;;;;;27.10;19.47;;;1.90;99.90;;;;;;5061291;28;20455;-68
2022/12/04 08:44:22;;;;;;;24.93;22.10;;;1.80;99.90;;;;;;5051031;28;20835;-68
2022/12/04 08:46:48;;;;;;;25.67;21.50;;;1.90;99.90;;;;;;5051416;28;20554;-68
2022/12/04 08:49:15;;;;;;;27.77;21.77;;;2.00;99.90;;;;;;5056667;28;20515;-68
2022/12/04 08:51:42;;;;;;;27.87;22.17;;;2.00;99.90;;;;;;5055941;28;21038;-68
2022/12/04 08:54:12;;;;;;;27.57;22.40;;;2.00;99.90;;;;;;5055909;28;20786;-68
2022/12/04 08:56:38;;;;;;;26.27;20.57;;;2.00;99.90;;;;;;5056932;28;20486;-69
2022/12/04 08:59:05;;;;;;;25.17;20.77;;;2.20;99.90;;;;;;5051273;28;20846;-69
2022/12/04 09:01:33;;;;;;;29.00;22.47;;;2.10;99.90;;;;;;5059719;28;20483;-68
2022/12/04 09:04:01;;;;;;;30.00;23.50;;;2.10;99.90;;;;;;5056519;28;20462;-68
2022/12/04 09:06:28;;;;;;;28.67;22.17;;;2.10;99.90;;;;;;5057018;28;20487;-69
2022/12/04 09:08:55;;;;;;;25.73;20.10;;;2.10;99.90;;;;;;5056741;28;22598;-69
2022/12/04 09:11:24;;;;;;;22.90;19.37;;;2.10;99.90;;;;;;5059326;28;20585;-69
2022/12/04 09:13:52;;;;;;;29.43;19.83;;;2.10;99.90;;;;;;5057345;28;20497;-69
2022/12/04 09:16:22;;;;;;;22.67;19.30;;;2.30;99.90;;;;;;5055192;28;20456;-68
2022/12/04 09:18:51;;;;;;;25.97;19.37;;;2.20;99.90;;;;;;5062382;28;20953;-68
2022/12/04 09:21:19;;;;;;;25.00;19.57;;;2.30;99.90;;;;;;5049421;28;20840;-68
2022/12/04 09:23:46;;;;;;;21.90;17.93;;;2.20;99.90;;;;;;5056948;28;20479;-69
2022/12/04 09:26:20;;;;;;;20.00;18.20;;;2.20;99.90;;;;;;5057319;28;21222;-68
2022/12/04 09:28:48;;;;;;;21.63;19.50;;;2.10;99.90;;;;;;5051566;28;20557;-68
2022/12/04 09:31:15;;;;;;;22.53;20.10;;;2.00;99.90;;;;;;5052477;28;20494;-68
2022/12/04 09:33:42;;;;;;;23.97;20.60;;;2.00;99.90;;;;;;5052888;28;20494;-68
2022/12/04 09:36:14;;;;;;;21.60;19.37;;;2.00;99.90;;;;;;5061076;28;20456;-68
2022/12/04 09:38:42;;;;;;;21.63;19.37;;;2.40;99.90;;;;;;5050816;28;20497;-69
2022/12/04 09:41:21;;;;;;;22.60;19.80;;;2.40;99.90;;;;;;5055813;28;20462;-69
2022/12/04 09:43:55;;;;;;;21.83;19.43;;;2.60;99.90;;;;;;5051766;28;20962;-68
2022/12/04 09:46:29;;;;;;;21.20;19.20;;;2.70;99.90;;;;;;5056558;28;20470;-69
2022/12/04 09:49:00;;;;;;;22.63;20.33;;;2.80;99.90;;;;;;5056680;28;20463;-69
2022/12/04 09:51:30;;;;;;;24.20;20.30;;;2.80;99.90;;;;;;5051132;28;20569;-69
2022/12/04 09:54:02;;;;;;;21.43;19.37;;;2.90;99.90;;;;;;5047941;28;20487;-69
2022/12/04 09:56:30;;;;;;;23.30;20.70;;;3.00;99.90;;;;;;5049599;28;20461;-68
2022/12/04 09:59:03;;;;;;;24.33;21.30;;;2.90;99.90;;;;;;5050241;28;20850;-69
2022/12/04 10:01:40;;;;;;;22.80;20.60;;;3.00;99.90;;;;;;5058635;28;20474;-69
2022/12/04 10:04:10;;;;;;;23.67;21.27;;;3.10;99.90;;;;;;5061111;28;20451;-69
2022/12/04 10:06:44;;;;;;;23.60;20.80;;;3.00;99.90;;;;;;5058311;28;20494;-68
2022/12/04 10:09:16;;;;;;;23.47;21.17;;;3.20;99.90;;;;;;5053782;28;20839;-69
2022/12/04 10:11:50;;;;;;;23.63;21.43;;;3.20;99.90;;;;;;5047283;28;20459;-69
2022/12/04 10:14:40;;;;;;;24.10;20.43;;;3.20;99.90;;;;;;5051280;28;20494;-68
2022/12/04 10:17:30;;;;;;;24.83;22.33;;;3.30;99.90;;;;;;5057475;28;20452;-69
2022/12/04 10:20:03;;;;;;;24.20;21.80;;;3.20;99.90;;;;;;5053997;28;20834;-69
2022/12/04 10:22:41;;;;;;;23.60;21.20;;;3.30;99.90;;;;;;5055562;28;20901;-69
2022/12/04 10:25:13;;;;;;;23.27;20.70;;;3.20;99.90;;;;;;5054313;28;20471;-69
2022/12/04 10:27:45;;;;;;;25.47;21.30;;;3.30;99.90;;;;;;5059111;28;20459;-69
2022/12/04 10:30:19;;;;;;;26.00;21.60;;;3.20;99.90;;;;;;5055531;28;20481;-69
2022/12/04 10:32:47;;;;;;;24.00;21.57;;;3.00;99.90;;;;;;5054860;28;20470;-69
2022/12/04 10:35:20;;;;;;;22.30;20.00;;;3.00;99.90;;;;;;5058254;28;20466;-69
2022/12/04 10:37:53;;;;;;;24.87;22.30;;;2.70;99.90;;;;;;5053318;28;20984;-69
2022/12/04 10:40:24;;;;;;;23.53;21.17;;;2.80;99.90;;;;;;5054569;28;20464;-69
2022/12/04 10:42:57;;;;;;;24.13;20.57;;;2.80;99.90;;;;;;5052115;28;20471;-69
2022/12/04 10:45:25;;;;;;;21.97;19.77;;;2.80;99.90;;;;;;5054411;28;20557;-69
2022/12/04 10:47:53;;;;;;;23.03;20.87;;;2.60;99.90;;;;;;5048228;28;20452;-68
2022/12/04 10:50:22;;;;;;;20.63;18.50;;;2.50;99.90;;;;;;5059422;28;20479;-69
2022/12/04 10:52:51;;;;;;;21.17;19.07;;;2.50;99.90;;;;;;5050155;28;20469;-68
2022/12/04 10:55:29;;;;;;;19.83;18.20;;;2.60;99.90;;;;;;5056803;28;20485;-68
2022/12/04 10:57:56;;;;;;;24.27;21.67;;;2.50;99.90;;;;;;5060408;28;20462;-69
2022/12/04 11:00:26;;;;;;;24.10;21.67;;;2.50;99.90;;;;;;5045915;28;20478;-69
2022/12/04 11:02:55;;;;;;;23.10;21.00;;;2.30;99.90;;;;;;5054700;28;20469;-69
2022/12/04 11:05:29;;;;;;;22.43;20.13;;;2.40;99.90;;;;;;5055862;28;20510;-69
2022/12/04 11:07:59;;;;;;;25.10;22.50;;;2.30;99.90;;;;;;5048696;28;20576;-69
2022/12/04 11:10:31;;;;;;;22.10;19.90;;;2.50;99.90;;;;;;5054721;28;20593;-69
2022/12/04 11:13:02;;;;;;;22.67;20.30;;;2.30;99.90;;;;;;5061162;28;20455;-69
2022/12/04 11:15:29;;;;;;;22.50;20.20;;;2.40;99.90;;;;;;5053761;28;20465;-69
2022/12/04 11:18:08;;;;;;;22.60;20.57;;;2.40;99.90;;;;;;5056155;28;20835;-69
2022/12/04 11:20:35;;;;;;;22.70;20.53;;;2.30;99.90;;;;;;5051051;28;20452;-69
2022/12/04 11:23:05;;;;;;;22.80;20.60;;;2.30;99.90;;;;;;5058409;28;20471;-69
2022/12/04 11:25:38;;;;;;;21.57;19.67;;;2.40;99.90;;;;;;5059856;28;20917;-69
2022/12/04 11:28:05;;;;;;;24.17;21.53;;;2.50;99.90;;;;;;5061198;28;20459;-69
2022/12/04 11:30:36;;;;;;;23.60;21.40;;;2.70;99.90;;;;;;5054907;28;20978;-69
2022/12/04 11:33:04;;;;;;;21.63;19.70;;;2.50;99.90;;;;;;5050176;28;20529;-69
2022/12/04 11:35:32;;;;;;;23.27;20.97;;;2.40;99.90;;;;;;5057770;28;20473;-69
2022/12/04 11:38:04;;;;;;;21.37;19.47;;;2.40;99.90;;;;;;5057094;28;20478;-69
2022/12/04 11:40:34;;;;;;;21.73;19.73;;;2.20;99.90;;;;;;5058416;28;20467;-69
2022/12/04 11:43:04;;;;;;;24.83;22.47;;;2.30;99.90;;;;;;5056942;28;20462;-70
2022/12/04 11:45:31;;;;;;;23.33;20.80;;;2.40;99.90;;;;;;5059596;28;20465;-69
2022/12/04 11:48:00;;;;;;;21.37;19.57;;;2.50;99.90;;;;;;5057626;28;20469;-71
2022/12/04 11:50:36;;;;;;;21.70;19.67;;;2.60;99.90;;;;;;5056528;28;20495;-69
2022/12/04 11:53:12;;;;;;;22.90;20.63;;;2.50;99.90;;;;;;5054949;28;20467;-69
2022/12/04 11:56:16;;;;;;;21.60;19.60;;;2.50;99.90;;;;;;5055745;28;20520;-69
2022/12/04 11:58:57;;;;;;;22.90;20.50;;;2.60;99.90;;;;;;5054888;28;20478;-69
2022/12/04 12:01:36;;;;;;;21.53;19.53;;;2.50;99.90;;;;;;5055601;28;20816;-69
2022/12/04 12:04:26;;;;;;;23.67;21.17;;;2.60;99.90;;;;;;5060084;28;20479;-69
2022/12/04 12:07:04;;;;;;;22.90;20.50;;;2.80;99.90;;;;;;5058635;28;21091;-69
2022/12/04 12:09:37;;;;;;;22.07;20.07;;;2.80;99.90;;;;;;5055534;28;20469;-69
2022/12/04 12:12:10;;;;;;;22.20;20.17;;;2.80;99.90;;;;;;5055937;28;20459;-69
2022/12/04 12:14:46;;;;;;;23.83;21.63;;;2.90;99.90;;;;;;5055063;28;20497;-69
2022/12/04 12:17:22;;;;;;;21.27;19.27;;;2.90;99.90;;;;;;5054574;28;20462;-69
2022/12/04 12:20:02;;;;;;;22.80;20.70;;;3.00;99.90;;;;;;5054955;28;20517;-69
2022/12/04 12:22:43;;;;;;;24.30;21.80;;;3.10;99.90;;;;;;5059893;28;20475;-69
2022/12/04 12:25:18;;;;;;;22.93;20.47;;;2.90;99.90;;;;;;5056866;28;20494;-69
2022/12/04 12:28:02;;;;;;;23.20;20.87;;;2.90;99.90;;;;;;5057021;28;20558;-70
2022/12/04 12:30:37;;;;;;;24.37;21.87;;;2.90;99.90;;;;;;5056703;28;20452;-69
2022/12/04 12:33:11;;;;;;;23.00;20.60;;;3.00;99.90;;;;;;5056389;28;20462;-69
2022/12/04 12:35:45;;;;;;;23.93;21.50;;;3.10;99.90;;;;;;5061964;28;20501;-69
2022/12/04 12:38:18;;;;;;;27.17;22.80;;;3.00;99.90;;;;;;5058426;28;20927;-69
2022/12/04 12:40:50;;;;;;;24.50;21.93;;;2.90;99.90;;;;;;5054859;28;20458;-69
2022/12/04 12:43:24;;;;;;;24.17;21.87;;;2.90;99.90;;;;;;5058610;28;20471;-69
2022/12/04 12:45:55;;;;;;;21.27;19.07;;;2.90;99.90;;;;;;5049760;28;20890;-69
2022/12/04 12:48:28;;;;;;;22.40;20.40;;;2.70;99.90;;;;;;5049375;28;20468;-69
2022/12/04 12:51:01;;;;;;;23.47;21.23;;;2.60;99.90;;;;;;5050295;28;20487;-69
2022/12/04 12:53:34;;;;;;;22.83;20.50;;;2.40;99.90;;;;;;5060601;28;20471;-69
2022/12/04 12:56:03;;;;;;;21.13;19.43;;;2.50;99.90;;;;;;5064311;28;20798;-69
2022/12/04 12:58:37;;;;;;;26.67;22.27;;;2.50;99.90;;;;;;5057450;28;20463;-69
2022/12/04 13:01:09;;;;;;;24.07;21.50;;;2.50;99.90;;;;;;5061125;28;20459;-69